La présentation est en train de télécharger. S'il vous plaît, attendez

La présentation est en train de télécharger. S'il vous plaît, attendez

EXERCICES METAR: LFBA 300600Z 24003KT 9999 –RA FEW008 SCT053 BKN100 18/16 Q1015 NOSIG LFBA 300600Z 24003KT 9999 - RA FEW008 SCT053 BKN100 18/16 Q1015 NOSIG.

Présentations similaires


Présentation au sujet: "EXERCICES METAR: LFBA 300600Z 24003KT 9999 –RA FEW008 SCT053 BKN100 18/16 Q1015 NOSIG LFBA 300600Z 24003KT 9999 - RA FEW008 SCT053 BKN100 18/16 Q1015 NOSIG."— Transcription de la présentation:

1 EXERCICES METAR: LFBA Z 24003KT 9999 –RA FEW008 SCT053 BKN100 18/16 Q1015 NOSIG LFBA Z 24003KT RA FEW008 SCT053 BKN100 18/16 Q1015 NOSIG AGEN LA GARENNE Température = 18°, point de rosée = 16° Observation le 30 de ce mois à 06 h UTC Nuages épars (3/8 – 4/8) à 5300 ft Vent du 240 – vitesse moyenne 03Kt Visibilité > 10 Km QNH = 1015 hPa Aucun changement significatif prévu dans les 2 heures à venir Faible pluie Peu de nuages (1/8 – 2/8) à 800ft Nuages fragmentés (5/8 – 7/8) à ft

2 TAF: LFBA Z KT 9999 FEW008 SCT025 BKN090 BECMG KT TEMPO –RA SCT008 BKN030 BKN080 PROB30 TEMPO KT 5000 SHRA BKN008 BKN020 LFBA Z KT 9999 FEW008 SCT025 BKN090 AGEN LA GARENNE Peu de nuages à 800ft Observation le 30 de ce mois à 05 h UTC Visibilité > 10 Km Prévision le 30 de06h00 à 15h00 UTC Vent du 240 – vitesse moyenne 06Kt Nuages épars à 2500ft Nuages fragmentés à 9000ft

3 TAF: BECMG KT TEMPO –RA SCT008 BKN030 BKN080 PROB30 TEMPO KT 5000 SHRA BKN008 BKN020 BECMG KT TEMPO RA SCT008 BKN030 évolution régulière ou irrégulière Visibilité – 7000m Prévue entre 09 et 12 h UTC Prévue entre 06 et 15 h UTC Vent du 280 – 10kt Évolution temporaire Faible pluie Nuages épars (3/8 – 4/8) à 800ft Nuages fragmentés (5/8 – 7/8) à 3000ft

4 TAF : BKN080 PROB30 TEMPO KT 5000 SHRA BKN008 BKN020 BKN080 PROB30 TEMPO KT 5000 SHRA BKN008 BKN020 Nuages fragmentés (5/8 –7/8) à 8000ft Visibilité 5000m Probabilité d’occurrence de 30% des phénomènes suivants Vent du 270 – 15 kt Évolution temporaire Prévue entre 06 et 15 h UTC Averse pluie Nuages fragmentés ( 5/8 - 7/8) à 800ft Nuages fragmentés ( 5/8 - 7/8) à 2000ft

5 EXERCICES METAR: LFBA Z 20015KT 150V –RA SCT020 SCT036 BKN100 19/17 Q1008 NOSIG LFBA Z KT 150V RA SCT020 SCT036 BKN100 19/17 Q1008 NOSIG AGEN LA GARENNE Température = 19°, point de rosée = 17° Observation le 08 de ce mois à 14H00 UTC Nuages épars (3/8 – 4/8) à 3600 ft Vent du 240 – vitesse moyenne 15Kt Visibilité 7000m QNH = 1008 hPa Aucun changement significatif prévu dans les 2 heures à venir Faible pluie Nuages fragmentés (5/8 – 7/8) à ft Nuages épars (3/8 - 4/8) à 2000ft Vent de direction variable du 150 au 230

6 TAF: LFBA Z KT 9999 SCT035 SCT060 BKN080 BECMG KT 3000 RA SCT010 BKN025 OVC080 PROB30 TEMPO G25KT 3000 TSRA SCT015 BKN035CB OVC080 LFBA Z KT 9999 SCT035 SCT060 BKN080 AGEN LA GARENNE Nuages épars (3/8 – 4/8) à 3500ft Observation le 08 de ce mois à 14 h UTC Visibilité > 10 Km Prévision le 08 de 15h00 à 24h00 UTC Vent du 230 – vitesse moyenne 06Kt Nuages épars à 6000ft Nuages fragmentés (5/8 – 7/8) à 8000ft

7 TAF: BECMG KT 3000 RA SCT010 BKN025 OVC080 BECMG KT 3000 RA SCT010 BKN025 OVC080 évolution régulière ou irrégulière Nuages épars (3/8 – 4/8) 1000ft Prévue entre 15 et 16 h UTC pluie Vent du 220 – 15kt Visibilité 3000m Nuages fragmentés (5/8 – 7/8) à 2500 ft Couvert (8/8) 8000ft

8 TAF : PROB30 TEMPO G25KT 3000 TSRA SCT015 BKN035CB OVC080 PROB30 TEMPO G25KT 3000 TSRA SCT015 BKN035CB OVC080 Visibilité 3000m Probabilité d’occurrence de 30% des phénomènes suivants Vent du 230 – vitesse moy. 15 kt avec rafales à 25 kt Évolution temporaire Prévue entre 15 et 24 h UTC orage pluie Nuages fragmentés ( 5/8 - 7/8) à 3500ft présence de CB Couvert (8/8) à 8000ft Nuages épars (3/8 – 4/8) à 1500ft


Télécharger ppt "EXERCICES METAR: LFBA 300600Z 24003KT 9999 –RA FEW008 SCT053 BKN100 18/16 Q1015 NOSIG LFBA 300600Z 24003KT 9999 - RA FEW008 SCT053 BKN100 18/16 Q1015 NOSIG."

Présentations similaires


Annonces Google